sensor_id;sensor_type;location;lat;lon;timestamp;P1;durP1;ratioP1;P2;durP2;ratioP2
7193;SDS011;3638;48.820;9.244;2023-12-20T00:00:34;2.77;;;2.57;;
7193;SDS011;3638;48.820;9.244;2023-12-20T00:03:04;2.90;;;2.70;;
7193;SDS011;3638;48.820;9.244;2023-12-20T00:05:31;3.97;;;3.53;;
7193;SDS011;3638;48.820;9.244;2023-12-20T00:07:58;2.80;;;2.60;;
7193;SDS011;3638;48.820;9.244;2023-12-20T00:10:25;2.90;;;2.70;;
7193;SDS011;3638;48.820;9.244;2023-12-20T00:12:52;2.90;;;2.70;;
7193;SDS011;3638;48.820;9.244;2023-12-20T00:15:20;2.67;;;2.57;;
7193;SDS011;3638;48.820;9.244;2023-12-20T00:17:47;2.60;;;2.40;;
7193;SDS011;3638;48.820;9.244;2023-12-20T00:20:15;2.83;;;2.53;;
7193;SDS011;3638;48.820;9.244;2023-12-20T00:22:43;2.60;;;2.40;;
7193;SDS011;3638;48.820;9.244;2023-12-20T00:25:10;3.40;;;2.60;;
7193;SDS011;3638;48.820;9.244;2023-12-20T00:27:37;2.80;;;2.60;;
7193;SDS011;3638;48.820;9.244;2023-12-20T00:30:05;2.77;;;2.57;;
7193;SDS011;3638;48.820;9.244;2023-12-20T00:32:33;2.80;;;2.60;;
7193;SDS011;3638;48.820;9.244;2023-12-20T00:35:00;2.70;;;2.50;;
7193;SDS011;3638;48.820;9.244;2023-12-20T00:37:29;2.60;;;2.40;;
7193;SDS011;3638;48.820;9.244;2023-12-20T00:39:56;2.70;;;2.50;;
7193;SDS011;3638;48.820;9.244;2023-12-20T00:42:23;2.40;;;2.30;;
7193;SDS011;3638;48.820;9.244;2023-12-20T00:44:51;2.67;;;2.47;;
7193;SDS011;3638;48.820;9.244;2023-12-20T00:47:18;2.37;;;2.23;;
7193;SDS011;3638;48.820;9.244;2023-12-20T00:49:45;2.70;;;2.50;;
7193;SDS011;3638;48.820;9.244;2023-12-20T00:52:12;2.50;;;2.40;;
7193;SDS011;3638;48.820;9.244;2023-12-20T00:54:43;2.70;;;2.40;;
7193;SDS011;3638;48.820;9.244;2023-12-20T00:57:10;2.60;;;2.40;;
7193;SDS011;3638;48.820;9.244;2023-12-20T00:59:37;2.97;;;2.77;;
7193;SDS011;3638;48.820;9.244;2023-12-20T01:02:05;2.90;;;2.60;;
7193;SDS011;3638;48.820;9.244;2023-12-20T01:04:32;2.70;;;2.50;;
7193;SDS011;3638;48.820;9.244;2023-12-20T01:06:59;2.87;;;2.67;;
7193;SDS011;3638;48.820;9.244;2023-12-20T01:09:27;4.90;;;2.53;;
7193;SDS011;3638;48.820;9.244;2023-12-20T01:11:55;4.90;;;2.80;;
7193;SDS011;3638;48.820;9.244;2023-12-20T01:14:22;2.97;;;2.70;;
7193;SDS011;3638;48.820;9.244;2023-12-20T01:16:50;2.87;;;2.67;;
7193;SDS011;3638;48.820;9.244;2023-12-20T01:19:17;2.93;;;2.73;;
7193;SDS011;3638;48.820;9.244;2023-12-20T01:21:44;2.87;;;2.67;;
7193;SDS011;3638;48.820;9.244;2023-12-20T01:24:12;2.83;;;2.60;;
7193;SDS011;3638;48.820;9.244;2023-12-20T01:26:39;2.60;;;2.40;;
7193;SDS011;3638;48.820;9.244;2023-12-20T01:29:07;3.00;;;2.80;;
7193;SDS011;3638;48.820;9.244;2023-12-20T01:31:36;2.63;;;2.43;;
7193;SDS011;3638;48.820;9.244;2023-12-20T01:34:03;3.00;;;2.80;;
7193;SDS011;3638;48.820;9.244;2023-12-20T01:36:31;4.97;;;4.33;;
7193;SDS011;3638;48.820;9.244;2023-12-20T01:38:58;4.17;;;3.50;;
7193;SDS011;3638;48.820;9.244;2023-12-20T01:41:25;3.80;;;3.50;;
7193;SDS011;3638;48.820;9.244;2023-12-20T01:43:53;2.93;;;2.73;;
7193;SDS011;3638;48.820;9.244;2023-12-20T01:46:21;3.30;;;3.10;;
7193;SDS011;3638;48.820;9.244;2023-12-20T01:48:49;3.03;;;2.83;;
7193;SDS011;3638;48.820;9.244;2023-12-20T01:51:16;3.13;;;2.87;;
7193;SDS011;3638;48.820;9.244;2023-12-20T01:53:43;3.40;;;3.10;;
7193;SDS011;3638;48.820;9.244;2023-12-20T01:56:11;2.97;;;2.67;;
7193;SDS011;3638;48.820;9.244;2023-12-20T01:58:39;3.00;;;2.80;;
7193;SDS011;3638;48.820;9.244;2023-12-20T02:01:11;3.00;;;2.80;;
7193;SDS011;3638;48.820;9.244;2023-12-20T02:03:40;2.90;;;2.60;;
7193;SDS011;3638;48.820;9.244;2023-12-20T02:06:08;2.80;;;2.60;;
7193;SDS011;3638;48.820;9.244;2023-12-20T02:08:35;2.90;;;2.53;;
7193;SDS011;3638;48.820;9.244;2023-12-20T02:11:03;2.67;;;2.47;;
7193;SDS011;3638;48.820;9.244;2023-12-20T02:13:30;2.90;;;2.70;;
7193;SDS011;3638;48.820;9.244;2023-12-20T02:15:57;2.73;;;2.50;;
7193;SDS011;3638;48.820;9.244;2023-12-20T02:18:25;2.97;;;2.77;;
7193;SDS011;3638;48.820;9.244;2023-12-20T02:20:53;2.87;;;2.67;;
7193;SDS011;3638;48.820;9.244;2023-12-20T02:23:22;3.20;;;2.90;;
7193;SDS011;3638;48.820;9.244;2023-12-20T02:25:50;4.63;;;2.90;;
7193;SDS011;3638;48.820;9.244;2023-12-20T02:28:17;2.87;;;2.67;;
7193;SDS011;3638;48.820;9.244;2023-12-20T02:30:46;3.00;;;2.80;;
7193;SDS011;3638;48.820;9.244;2023-12-20T02:33:14;3.33;;;3.03;;
7193;SDS011;3638;48.820;9.244;2023-12-20T02:35:42;3.50;;;3.20;;
7193;SDS011;3638;48.820;9.244;2023-12-20T02:38:09;3.10;;;2.90;;
7193;SDS011;3638;48.820;9.244;2023-12-20T02:40:38;2.70;;;2.50;;
7193;SDS011;3638;48.820;9.244;2023-12-20T02:43:05;2.70;;;2.50;;
7193;SDS011;3638;48.820;9.244;2023-12-20T02:45:32;3.60;;;3.10;;
7193;SDS011;3638;48.820;9.244;2023-12-20T02:47:59;3.00;;;2.80;;
7193;SDS011;3638;48.820;9.244;2023-12-20T02:50:26;3.10;;;2.90;;
7193;SDS011;3638;48.820;9.244;2023-12-20T02:52:53;3.00;;;2.80;;
7193;SDS011;3638;48.820;9.244;2023-12-20T02:55:21;3.00;;;2.80;;
7193;SDS011;3638;48.820;9.244;2023-12-20T02:57:49;3.57;;;2.80;;
7193;SDS011;3638;48.820;9.244;2023-12-20T03:00:17;3.13;;;2.90;;
7193;SDS011;3638;48.820;9.244;2023-12-20T03:02:44;3.23;;;3.03;;
7193;SDS011;3638;48.820;9.244;2023-12-20T03:05:11;3.00;;;2.80;;
7193;SDS011;3638;48.820;9.244;2023-12-20T03:07:38;3.07;;;2.87;;
7193;SDS011;3638;48.820;9.244;2023-12-20T03:10:07;3.23;;;3.00;;
7193;SDS011;3638;48.820;9.244;2023-12-20T03:12:34;3.80;;;3.00;;
7193;SDS011;3638;48.820;9.244;2023-12-20T03:15:03;3.47;;;3.13;;
7193;SDS011;3638;48.820;9.244;2023-12-20T03:17:30;2.90;;;2.70;;
7193;SDS011;3638;48.820;9.244;2023-12-20T03:19:57;2.70;;;2.50;;
7193;SDS011;3638;48.820;9.244;2023-12-20T03:22:25;2.70;;;2.50;;
7193;SDS011;3638;48.820;9.244;2023-12-20T03:24:52;2.50;;;2.30;;
7193;SDS011;3638;48.820;9.244;2023-12-20T03:27:19;2.80;;;2.60;;
7193;SDS011;3638;48.820;9.244;2023-12-20T03:29:46;2.67;;;2.37;;
7193;SDS011;3638;48.820;9.244;2023-12-20T03:32:16;2.43;;;2.23;;
7193;SDS011;3638;48.820;9.244;2023-12-20T03:34:43;2.10;;;2.00;;
7193;SDS011;3638;48.820;9.244;2023-12-20T03:37:11;2.50;;;2.30;;
7193;SDS011;3638;48.820;9.244;2023-12-20T03:39:38;2.20;;;2.10;;
7193;SDS011;3638;48.820;9.244;2023-12-20T03:42:05;2.23;;;2.13;;
7193;SDS011;3638;48.820;9.244;2023-12-20T03:44:32;1.83;;;1.73;;
7193;SDS011;3638;48.820;9.244;2023-12-20T03:47:00;2.30;;;1.70;;
7193;SDS011;3638;48.820;9.244;2023-12-20T03:49:28;2.00;;;1.90;;
7193;SDS011;3638;48.820;9.244;2023-12-20T03:51:56;2.00;;;1.90;;
7193;SDS011;3638;48.820;9.244;2023-12-20T03:54:23;1.80;;;1.70;;
7193;SDS011;3638;48.820;9.244;2023-12-20T03:56:51;1.87;;;1.77;;
7193;SDS011;3638;48.820;9.244;2023-12-20T03:59:18;1.90;;;1.80;;
7193;SDS011;3638;48.820;9.244;2023-12-20T04:01:45;1.70;;;1.70;;
7193;SDS011;3638;48.820;9.244;2023-12-20T04:04:12;1.70;;;1.70;;
7193;SDS011;3638;48.820;9.244;2023-12-20T04:06:41;1.60;;;1.60;;
7193;SDS011;3638;48.820;9.244;2023-12-20T04:09:08;2.00;;;1.90;;
7193;SDS011;3638;48.820;9.244;2023-12-20T04:11:37;1.87;;;1.80;;
7193;SDS011;3638;48.820;9.244;2023-12-20T04:14:04;1.80;;;1.80;;
7193;SDS011;3638;48.820;9.244;2023-12-20T04:16:32;2.00;;;1.80;;
7193;SDS011;3638;48.820;9.244;2023-12-20T04:18:59;1.90;;;1.80;;
7193;SDS011;3638;48.820;9.244;2023-12-20T04:21:27;1.77;;;1.67;;
7193;SDS011;3638;48.820;9.244;2023-12-20T04:23:55;1.60;;;1.60;;
7193;SDS011;3638;48.820;9.244;2023-12-20T04:26:22;1.77;;;1.70;;
7193;SDS011;3638;48.820;9.244;2023-12-20T04:28:49;1.73;;;1.63;;
7193;SDS011;3638;48.820;9.244;2023-12-20T04:31:17;1.63;;;1.63;;
7193;SDS011;3638;48.820;9.244;2023-12-20T04:33:44;1.97;;;1.87;;
7193;SDS011;3638;48.820;9.244;2023-12-20T04:36:11;1.80;;;1.70;;
7193;SDS011;3638;48.820;9.244;2023-12-20T04:38:38;1.90;;;1.80;;
7193;SDS011;3638;48.820;9.244;2023-12-20T04:41:07;1.90;;;1.80;;
7193;SDS011;3638;48.820;9.244;2023-12-20T04:43:34;1.87;;;1.77;;
7193;SDS011;3638;48.820;9.244;2023-12-20T04:46:01;1.97;;;1.87;;
7193;SDS011;3638;48.820;9.244;2023-12-20T04:48:28;1.90;;;1.80;;
7193;SDS011;3638;48.820;9.244;2023-12-20T04:50:55;1.70;;;1.70;;
7193;SDS011;3638;48.820;9.244;2023-12-20T04:53:25;1.97;;;1.87;;
7193;SDS011;3638;48.820;9.244;2023-12-20T04:55:52;1.70;;;1.70;;
7193;SDS011;3638;48.820;9.244;2023-12-20T04:58:21;1.87;;;1.77;;
7193;SDS011;3638;48.820;9.244;2023-12-20T05:00:48;2.10;;;1.90;;
7193;SDS011;3638;48.820;9.244;2023-12-20T05:03:16;1.90;;;1.80;;
7193;SDS011;3638;48.820;9.244;2023-12-20T05:05:43;1.80;;;1.70;;
7193;SDS011;3638;48.820;9.244;2023-12-20T05:08:10;1.83;;;1.73;;
7193;SDS011;3638;48.820;9.244;2023-12-20T05:10:37;1.60;;;1.60;;
7193;SDS011;3638;48.820;9.244;2023-12-20T05:13:05;2.00;;;1.90;;
7193;SDS011;3638;48.820;9.244;2023-12-20T05:15:36;2.57;;;1.90;;
7193;SDS011;3638;48.820;9.244;2023-12-20T05:18:04;1.90;;;1.80;;
7193;SDS011;3638;48.820;9.244;2023-12-20T05:20:31;2.00;;;1.90;;
7193;SDS011;3638;48.820;9.244;2023-12-20T05:22:58;1.73;;;1.70;;
7193;SDS011;3638;48.820;9.244;2023-12-20T05:25:25;1.80;;;1.70;;
7193;SDS011;3638;48.820;9.244;2023-12-20T05:27:52;1.90;;;1.80;;
7193;SDS011;3638;48.820;9.244;2023-12-20T05:30:21;2.00;;;1.90;;
7193;SDS011;3638;48.820;9.244;2023-12-20T05:32:49;1.70;;;1.70;;
7193;SDS011;3638;48.820;9.244;2023-12-20T05:35:17;1.90;;;1.80;;
7193;SDS011;3638;48.820;9.244;2023-12-20T05:37:44;1.90;;;1.80;;
7193;SDS011;3638;48.820;9.244;2023-12-20T05:40:11;2.00;;;1.90;;
7193;SDS011;3638;48.820;9.244;2023-12-20T05:42:39;1.87;;;1.77;;
7193;SDS011;3638;48.820;9.244;2023-12-20T05:45:06;2.07;;;1.97;;
7193;SDS011;3638;48.820;9.244;2023-12-20T05:47:33;3.37;;;2.00;;
7193;SDS011;3638;48.820;9.244;2023-12-20T05:50:02;1.90;;;1.80;;
7193;SDS011;3638;48.820;9.244;2023-12-20T05:52:30;2.10;;;2.00;;
7193;SDS011;3638;48.820;9.244;2023-12-20T05:54:57;2.00;;;1.90;;
7193;SDS011;3638;48.820;9.244;2023-12-20T05:57:26;2.10;;;2.00;;
7193;SDS011;3638;48.820;9.244;2023-12-20T05:59:53;2.00;;;1.90;;
7193;SDS011;3638;48.820;9.244;2023-12-20T06:02:21;2.20;;;2.10;;
7193;SDS011;3638;48.820;9.244;2023-12-20T06:04:48;2.20;;;2.10;;
7193;SDS011;3638;48.820;9.244;2023-12-20T06:07:16;1.90;;;1.80;;
7193;SDS011;3638;48.820;9.244;2023-12-20T06:09:44;2.10;;;2.00;;
7193;SDS011;3638;48.820;9.244;2023-12-20T06:12:11;1.90;;;1.80;;
7193;SDS011;3638;48.820;9.244;2023-12-20T06:14:38;2.10;;;2.00;;
7193;SDS011;3638;48.820;9.244;2023-12-20T06:17:05;2.40;;;2.13;;
7193;SDS011;3638;48.820;9.244;2023-12-20T06:19:32;2.30;;;2.20;;
7193;SDS011;3638;48.820;9.244;2023-12-20T06:22:00;2.10;;;2.00;;
7193;SDS011;3638;48.820;9.244;2023-12-20T06:24:28;2.37;;;2.10;;
7193;SDS011;3638;48.820;9.244;2023-12-20T06:26:55;2.10;;;2.00;;
7193;SDS011;3638;48.820;9.244;2023-12-20T06:29:21;2.10;;;2.00;;
7193;SDS011;3638;48.820;9.244;2023-12-20T06:31:49;2.50;;;2.13;;
7193;SDS011;3638;48.820;9.244;2023-12-20T06:34:16;2.20;;;2.10;;
7193;SDS011;3638;48.820;9.244;2023-12-20T06:36:43;2.30;;;2.00;;
7193;SDS011;3638;48.820;9.244;2023-12-20T06:39:10;2.23;;;2.13;;
7193;SDS011;3638;48.820;9.244;2023-12-20T06:41:40;2.40;;;2.10;;
7193;SDS011;3638;48.820;9.244;2023-12-20T06:44:07;2.30;;;2.20;;
7193;SDS011;3638;48.820;9.244;2023-12-20T06:46:35;2.60;;;2.40;;
7193;SDS011;3638;48.820;9.244;2023-12-20T06:49:02;2.30;;;2.10;;
7193;SDS011;3638;48.820;9.244;2023-12-20T06:51:29;3.33;;;2.30;;
7193;SDS011;3638;48.820;9.244;2023-12-20T06:53:56;2.50;;;2.30;;
7193;SDS011;3638;48.820;9.244;2023-12-20T06:56:25;2.70;;;2.50;;
7193;SDS011;3638;48.820;9.244;2023-12-20T06:58:53;2.50;;;2.30;;
7193;SDS011;3638;48.820;9.244;2023-12-20T07:01:20;2.40;;;2.20;;
7193;SDS011;3638;48.820;9.244;2023-12-20T07:03:47;2.60;;;2.40;;
7193;SDS011;3638;48.820;9.244;2023-12-20T07:06:15;2.20;;;2.10;;
7193;SDS011;3638;48.820;9.244;2023-12-20T07:08:42;3.80;;;2.50;;
7193;SDS011;3638;48.820;9.244;2023-12-20T07:11:09;3.90;;;3.00;;
7193;SDS011;3638;48.820;9.244;2023-12-20T07:13:37;3.13;;;2.90;;
7193;SDS011;3638;48.820;9.244;2023-12-20T07:16:05;3.20;;;3.00;;
7193;SDS011;3638;48.820;9.244;2023-12-20T07:18:33;4.17;;;3.10;;
7193;SDS011;3638;48.820;9.244;2023-12-20T07:21:00;4.30;;;4.00;;
7193;SDS011;3638;48.820;9.244;2023-12-20T07:23:27;4.53;;;3.40;;
7193;SDS011;3638;48.820;9.244;2023-12-20T07:25:54;3.73;;;3.43;;
7193;SDS011;3638;48.820;9.244;2023-12-20T07:28:21;4.10;;;3.80;;
7193;SDS011;3638;48.820;9.244;2023-12-20T07:30:49;4.33;;;4.03;;
7193;SDS011;3638;48.820;9.244;2023-12-20T07:33:18;4.93;;;4.60;;
7193;SDS011;3638;48.820;9.244;2023-12-20T07:35:45;5.17;;;4.60;;
7193;SDS011;3638;48.820;9.244;2023-12-20T07:38:12;5.30;;;4.80;;
7193;SDS011;3638;48.820;9.244;2023-12-20T07:40:39;5.03;;;4.53;;
7193;SDS011;3638;48.820;9.244;2023-12-20T07:43:07;5.43;;;5.00;;
7193;SDS011;3638;48.820;9.244;2023-12-20T07:45:34;4.57;;;4.27;;
7193;SDS011;3638;48.820;9.244;2023-12-20T07:48:01;5.10;;;4.70;;
7193;SDS011;3638;48.820;9.244;2023-12-20T07:50:31;4.30;;;4.00;;
7193;SDS011;3638;48.820;9.244;2023-12-20T07:52:58;4.60;;;4.20;;
7193;SDS011;3638;48.820;9.244;2023-12-20T07:55:26;4.40;;;4.00;;
7193;SDS011;3638;48.820;9.244;2023-12-20T07:57:53;4.73;;;4.33;;
7193;SDS011;3638;48.820;9.244;2023-12-20T08:00:20;4.80;;;4.40;;
7193;SDS011;3638;48.820;9.244;2023-12-20T08:02:47;4.70;;;4.33;;
7193;SDS011;3638;48.820;9.244;2023-12-20T08:05:14;5.07;;;4.67;;
7193;SDS011;3638;48.820;9.244;2023-12-20T08:07:43;4.43;;;4.07;;
7193;SDS011;3638;48.820;9.244;2023-12-20T08:10:10;4.70;;;4.30;;
7193;SDS011;3638;48.820;9.244;2023-12-20T08:12:37;4.13;;;3.83;;
7193;SDS011;3638;48.820;9.244;2023-12-20T08:15:06;4.60;;;4.20;;
7193;SDS011;3638;48.820;9.244;2023-12-20T08:17:33;5.33;;;4.83;;
7193;SDS011;3638;48.820;9.244;2023-12-20T08:20:00;5.93;;;4.60;;
7193;SDS011;3638;48.820;9.244;2023-12-20T08:22:28;4.90;;;4.50;;
7193;SDS011;3638;48.820;9.244;2023-12-20T08:24:57;5.07;;;4.63;;
7193;SDS011;3638;48.820;9.244;2023-12-20T08:27:24;4.73;;;4.33;;
7193;SDS011;3638;48.820;9.244;2023-12-20T08:29:52;6.47;;;4.83;;
7193;SDS011;3638;48.820;9.244;2023-12-20T08:32:19;4.80;;;4.40;;
7193;SDS011;3638;48.820;9.244;2023-12-20T08:34:46;4.93;;;4.53;;
7193;SDS011;3638;48.820;9.244;2023-12-20T08:37:13;5.20;;;4.80;;
7193;SDS011;3638;48.820;9.244;2023-12-20T08:39:41;5.70;;;5.20;;
7193;SDS011;3638;48.820;9.244;2023-12-20T08:42:10;5.40;;;4.90;;
7193;SDS011;3638;48.820;9.244;2023-12-20T08:44:37;5.53;;;4.93;;
7193;SDS011;3638;48.820;9.244;2023-12-20T08:47:04;5.43;;;4.67;;
7193;SDS011;3638;48.820;9.244;2023-12-20T08:49:32;5.17;;;4.60;;
7193;SDS011;3638;48.820;9.244;2023-12-20T08:51:59;5.33;;;4.83;;
7193;SDS011;3638;48.820;9.244;2023-12-20T08:54:26;5.37;;;4.87;;
7193;SDS011;3638;48.820;9.244;2023-12-20T08:56:54;5.33;;;4.83;;
7193;SDS011;3638;48.820;9.244;2023-12-20T08:59:22;5.27;;;4.77;;
7193;SDS011;3638;48.820;9.244;2023-12-20T09:01:50;4.52;;;4.15;;
7193;SDS011;3638;48.820;9.244;2023-12-20T09:04:19;4.80;;;4.40;;
7193;SDS011;3638;48.820;9.244;2023-12-20T09:06:46;4.90;;;4.40;;
7193;SDS011;3638;48.820;9.244;2023-12-20T09:09:14;5.53;;;4.73;;
7193;SDS011;3638;48.820;9.244;2023-12-20T09:11:41;4.83;;;4.33;;
7193;SDS011;3638;48.820;9.244;2023-12-20T09:14:11;6.93;;;4.43;;
7193;SDS011;3638;48.820;9.244;2023-12-20T09:16:45;4.44;;;4.06;;
7193;SDS011;3638;48.820;9.244;2023-12-20T09:19:12;4.17;;;3.87;;
7193;SDS011;3638;48.820;9.244;2023-12-20T09:21:39;5.30;;;4.30;;
7193;SDS011;3638;48.820;9.244;2023-12-20T09:24:06;4.33;;;3.90;;
7193;SDS011;3638;48.820;9.244;2023-12-20T09:26:34;4.43;;;4.13;;
7193;SDS011;3638;48.820;9.244;2023-12-20T09:29:01;4.90;;;4.00;;
7193;SDS011;3638;48.820;9.244;2023-12-20T09:31:28;4.67;;;4.27;;
7193;SDS011;3638;48.820;9.244;2023-12-20T09:33:57;4.87;;;4.03;;
7193;SDS011;3638;48.820;9.244;2023-12-20T09:36:24;6.43;;;4.07;;
7193;SDS011;3638;48.820;9.244;2023-12-20T09:38:52;5.80;;;3.43;;
7193;SDS011;3638;48.820;9.244;2023-12-20T09:41:19;5.10;;;3.63;;
7193;SDS011;3638;48.820;9.244;2023-12-20T09:43:46;4.70;;;3.23;;
7193;SDS011;3638;48.820;9.244;2023-12-20T09:46:15;3.00;;;2.80;;
7193;SDS011;3638;48.820;9.244;2023-12-20T09:48:45;4.27;;;3.07;;
7193;SDS011;3638;48.820;9.244;2023-12-20T09:51:14;7.73;;;3.23;;
7193;SDS011;3638;48.820;9.244;2023-12-20T09:53:42;3.63;;;3.37;;
7193;SDS011;3638;48.820;9.244;2023-12-20T09:56:10;4.80;;;3.00;;
7193;SDS011;3638;48.820;9.244;2023-12-20T09:58:37;7.63;;;3.70;;
7193;SDS011;3638;48.820;9.244;2023-12-20T10:01:05;5.23;;;3.10;;
7193;SDS011;3638;48.820;9.244;2023-12-20T10:03:33;5.00;;;3.00;;
7193;SDS011;3638;48.820;9.244;2023-12-20T10:06:01;7.70;;;3.03;;
7193;SDS011;3638;48.820;9.244;2023-12-20T10:08:30;7.27;;;4.37;;
7193;SDS011;3638;48.820;9.244;2023-12-20T10:10:57;5.77;;;2.97;;
7193;SDS011;3638;48.820;9.244;2023-12-20T10:13:27;4.73;;;2.80;;
7193;SDS011;3638;48.820;9.244;2023-12-20T10:15:54;5.60;;;3.40;;
7193;SDS011;3638;48.820;9.244;2023-12-20T10:18:22;4.13;;;2.97;;
7193;SDS011;3638;48.820;9.244;2023-12-20T10:20:49;5.50;;;3.03;;
7193;SDS011;3638;48.820;9.244;2023-12-20T10:23:16;5.30;;;3.23;;
7193;SDS011;3638;48.820;9.244;2023-12-20T10:25:48;7.63;;;3.40;;
7193;SDS011;3638;48.820;9.244;2023-12-20T10:28:22;4.20;;;2.83;;
7193;SDS011;3638;48.820;9.244;2023-12-20T10:30:53;4.30;;;3.20;;
7193;SDS011;3638;48.820;9.244;2023-12-20T10:33:23;4.93;;;2.80;;
7193;SDS011;3638;48.820;9.244;2023-12-20T10:35:51;5.17;;;2.97;;
7193;SDS011;3638;48.820;9.244;2023-12-20T10:38:19;5.10;;;3.30;;
7193;SDS011;3638;48.820;9.244;2023-12-20T10:40:47;6.43;;;3.20;;
7193;SDS011;3638;48.820;9.244;2023-12-20T10:43:15;5.50;;;3.30;;
7193;SDS011;3638;48.820;9.244;2023-12-20T10:45:42;4.20;;;2.93;;
7193;SDS011;3638;48.820;9.244;2023-12-20T10:48:10;7.77;;;3.33;;
7193;SDS011;3638;48.820;9.244;2023-12-20T10:50:37;7.87;;;3.63;;
7193;SDS011;3638;48.820;9.244;2023-12-20T10:53:05;4.57;;;3.57;;
7193;SDS011;3638;48.820;9.244;2023-12-20T10:55:33;6.00;;;3.20;;
7193;SDS011;3638;48.820;9.244;2023-12-20T10:58:04;5.93;;;3.13;;
7193;SDS011;3638;48.820;9.244;2023-12-20T11:00:35;4.03;;;3.03;;
7193;SDS011;3638;48.820;9.244;2023-12-20T11:03:05;5.87;;;3.33;;
7193;SDS011;3638;48.820;9.244;2023-12-20T11:05:36;5.77;;;3.47;;
7193;SDS011;3638;48.820;9.244;2023-12-20T11:08:09;5.53;;;3.00;;
7193;SDS011;3638;48.820;9.244;2023-12-20T11:10:40;4.23;;;2.93;;
7193;SDS011;3638;48.820;9.244;2023-12-20T11:13:17;4.13;;;3.10;;
7193;SDS011;3638;48.820;9.244;2023-12-20T11:15:47;6.20;;;3.20;;
7193;SDS011;3638;48.820;9.244;2023-12-20T11:18:15;5.33;;;2.97;;
7193;SDS011;3638;48.820;9.244;2023-12-20T11:20:42;4.40;;;2.57;;
7193;SDS011;3638;48.820;9.244;2023-12-20T11:23:09;6.63;;;3.10;;
7193;SDS011;3638;48.820;9.244;2023-12-20T11:25:46;5.77;;;3.10;;
7193;SDS011;3638;48.820;9.244;2023-12-20T11:28:15;3.47;;;2.50;;
7193;SDS011;3638;48.820;9.244;2023-12-20T11:30:47;5.40;;;2.90;;
7193;SDS011;3638;48.820;9.244;2023-12-20T11:33:16;4.70;;;3.03;;
7193;SDS011;3638;48.820;9.244;2023-12-20T11:35:47;4.60;;;2.60;;
7193;SDS011;3638;48.820;9.244;2023-12-20T11:38:14;8.67;;;2.77;;
7193;SDS011;3638;48.820;9.244;2023-12-20T11:40:42;4.50;;;2.50;;
7193;SDS011;3638;48.820;9.244;2023-12-20T11:43:10;6.40;;;2.60;;
7193;SDS011;3638;48.820;9.244;2023-12-20T11:45:38;6.50;;;2.73;;
7193;SDS011;3638;48.820;9.244;2023-12-20T11:48:16;3.33;;;2.70;;
7193;SDS011;3638;48.820;9.244;2023-12-20T11:50:44;5.23;;;2.77;;
7193;SDS011;3638;48.820;9.244;2023-12-20T11:53:11;4.83;;;2.60;;
7193;SDS011;3638;48.820;9.244;2023-12-20T11:55:39;6.47;;;2.90;;
7193;SDS011;3638;48.820;9.244;2023-12-20T11:58:06;5.80;;;2.83;;
7193;SDS011;3638;48.820;9.244;2023-12-20T12:00:34;6.60;;;3.17;;
7193;SDS011;3638;48.820;9.244;2023-12-20T12:03:02;5.57;;;2.87;;
7193;SDS011;3638;48.820;9.244;2023-12-20T12:05:30;4.53;;;3.27;;
7193;SDS011;3638;48.820;9.244;2023-12-20T12:07:58;4.07;;;2.87;;
7193;SDS011;3638;48.820;9.244;2023-12-20T12:10:25;6.37;;;2.80;;
7193;SDS011;3638;48.820;9.244;2023-12-20T12:12:52;6.33;;;3.13;;
7193;SDS011;3638;48.820;9.244;2023-12-20T12:15:20;7.70;;;3.27;;
7193;SDS011;3638;48.820;9.244;2023-12-20T12:17:52;3.53;;;2.70;;
7193;SDS011;3638;48.820;9.244;2023-12-20T12:20:22;6.87;;;3.10;;
7193;SDS011;3638;48.820;9.244;2023-12-20T12:22:57;3.70;;;3.13;;
7193;SDS011;3638;48.820;9.244;2023-12-20T12:25:24;5.23;;;2.70;;
7193;SDS011;3638;48.820;9.244;2023-12-20T12:27:52;5.60;;;2.60;;
7193;SDS011;3638;48.820;9.244;2023-12-20T12:30:19;4.27;;;2.93;;
7193;SDS011;3638;48.820;9.244;2023-12-20T12:32:47;3.80;;;2.83;;
7193;SDS011;3638;48.820;9.244;2023-12-20T12:35:14;5.73;;;2.90;;
7193;SDS011;3638;48.820;9.244;2023-12-20T12:37:43;4.37;;;3.00;;
7193;SDS011;3638;48.820;9.244;2023-12-20T12:40:10;7.57;;;3.30;;
7193;SDS011;3638;48.820;9.244;2023-12-20T12:42:38;7.33;;;3.13;;
7193;SDS011;3638;48.820;9.244;2023-12-20T12:45:06;5.33;;;2.90;;
7193;SDS011;3638;48.820;9.244;2023-12-20T12:47:35;5.37;;;2.90;;
7193;SDS011;3638;48.820;9.244;2023-12-20T12:50:02;6.23;;;3.00;;
7193;SDS011;3638;48.820;9.244;2023-12-20T12:52:31;4.73;;;3.20;;
7193;SDS011;3638;48.820;9.244;2023-12-20T12:55:00;4.67;;;3.00;;
7193;SDS011;3638;48.820;9.244;2023-12-20T12:57:28;5.77;;;3.10;;
7193;SDS011;3638;48.820;9.244;2023-12-20T12:59:55;6.73;;;2.87;;
7193;SDS011;3638;48.820;9.244;2023-12-20T13:02:23;5.20;;;2.67;;
7193;SDS011;3638;48.820;9.244;2023-12-20T13:04:50;4.77;;;2.83;;
7193;SDS011;3638;48.820;9.244;2023-12-20T13:07:18;5.77;;;3.13;;
7193;SDS011;3638;48.820;9.244;2023-12-20T13:09:45;3.50;;;2.73;;
7193;SDS011;3638;48.820;9.244;2023-12-20T13:12:14;5.43;;;2.63;;
7193;SDS011;3638;48.820;9.244;2023-12-20T13:14:41;4.10;;;2.50;;
7193;SDS011;3638;48.820;9.244;2023-12-20T13:17:08;6.00;;;2.77;;
7193;SDS011;3638;48.820;9.244;2023-12-20T13:19:35;3.73;;;2.80;;
7193;SDS011;3638;48.820;9.244;2023-12-20T13:22:03;6.73;;;2.93;;
7193;SDS011;3638;48.820;9.244;2023-12-20T13:24:30;7.43;;;3.10;;
7193;SDS011;3638;48.820;9.244;2023-12-20T13:26:57;4.43;;;2.87;;
7193;SDS011;3638;48.820;9.244;2023-12-20T13:29:26;5.83;;;2.87;;
7193;SDS011;3638;48.820;9.244;2023-12-20T13:31:54;4.40;;;2.73;;
7193;SDS011;3638;48.820;9.244;2023-12-20T13:34:21;4.50;;;2.93;;
7193;SDS011;3638;48.820;9.244;2023-12-20T13:36:48;4.50;;;2.73;;
7193;SDS011;3638;48.820;9.244;2023-12-20T13:39:16;6.87;;;2.93;;
7193;SDS011;3638;48.820;9.244;2023-12-20T13:41:43;6.83;;;2.97;;
7193;SDS011;3638;48.820;9.244;2023-12-20T13:44:10;6.37;;;3.23;;
7193;SDS011;3638;48.820;9.244;2023-12-20T13:46:39;5.20;;;2.50;;
7193;SDS011;3638;48.820;9.244;2023-12-20T13:49:07;4.73;;;2.90;;
7193;SDS011;3638;48.820;9.244;2023-12-20T13:51:34;6.67;;;3.60;;
7193;SDS011;3638;48.820;9.244;2023-12-20T13:54:02;5.93;;;3.07;;
7193;SDS011;3638;48.820;9.244;2023-12-20T13:56:29;3.50;;;2.63;;
7193;SDS011;3638;48.820;9.244;2023-12-20T13:58:58;6.33;;;3.13;;
7193;SDS011;3638;48.820;9.244;2023-12-20T14:01:25;3.77;;;2.53;;
7193;SDS011;3638;48.820;9.244;2023-12-20T14:03:54;5.37;;;2.77;;
7193;SDS011;3638;48.820;9.244;2023-12-20T14:06:21;5.47;;;3.23;;
7193;SDS011;3638;48.820;9.244;2023-12-20T14:08:48;3.97;;;2.50;;
7193;SDS011;3638;48.820;9.244;2023-12-20T14:11:15;4.80;;;2.77;;
7193;SDS011;3638;48.820;9.244;2023-12-20T14:13:44;4.87;;;3.00;;
7193;SDS011;3638;48.820;9.244;2023-12-20T14:16:11;6.20;;;3.10;;
7193;SDS011;3638;48.820;9.244;2023-12-20T14:18:39;5.87;;;3.40;;
7193;SDS011;3638;48.820;9.244;2023-12-20T14:21:08;6.73;;;3.10;;
7193;SDS011;3638;48.820;9.244;2023-12-20T14:23:35;5.43;;;2.83;;
7193;SDS011;3638;48.820;9.244;2023-12-20T14:26:03;4.77;;;3.20;;
7193;SDS011;3638;48.820;9.244;2023-12-20T14:28:30;6.60;;;3.37;;
7193;SDS011;3638;48.820;9.244;2023-12-20T14:30:57;4.30;;;2.83;;
7193;SDS011;3638;48.820;9.244;2023-12-20T14:33:24;6.43;;;3.30;;
7193;SDS011;3638;48.820;9.244;2023-12-20T14:35:52;6.33;;;3.20;;
7193;SDS011;3638;48.820;9.244;2023-12-20T14:38:20;6.33;;;3.40;;
7193;SDS011;3638;48.820;9.244;2023-12-20T14:40:47;7.57;;;3.07;;
7193;SDS011;3638;48.820;9.244;2023-12-20T14:43:15;7.07;;;3.00;;
7193;SDS011;3638;48.820;9.244;2023-12-20T14:45:43;8.23;;;3.37;;
7193;SDS011;3638;48.820;9.244;2023-12-20T14:48:10;5.47;;;3.00;;
7193;SDS011;3638;48.820;9.244;2023-12-20T14:50:37;8.23;;;3.37;;
7193;SDS011;3638;48.820;9.244;2023-12-20T14:53:05;7.90;;;3.03;;
7193;SDS011;3638;48.820;9.244;2023-12-20T14:55:34;7.43;;;3.27;;
7193;SDS011;3638;48.820;9.244;2023-12-20T14:58:02;5.00;;;3.00;;
7193;SDS011;3638;48.820;9.244;2023-12-20T15:00:30;5.60;;;3.30;;
7193;SDS011;3638;48.820;9.244;2023-12-20T15:02:58;6.70;;;3.30;;
7193;SDS011;3638;48.820;9.244;2023-12-20T15:05:25;7.60;;;3.10;;
7193;SDS011;3638;48.820;9.244;2023-12-20T15:07:53;8.40;;;3.60;;
7193;SDS011;3638;48.820;9.244;2023-12-20T15:10:20;4.33;;;2.90;;
7193;SDS011;3638;48.820;9.244;2023-12-20T15:12:48;4.77;;;2.80;;
7193;SDS011;3638;48.820;9.244;2023-12-20T15:15:16;6.00;;;3.43;;
7193;SDS011;3638;48.820;9.244;2023-12-20T15:17:43;8.20;;;3.40;;